Time;durP1;ratioP1;P1;durP2;ratioP2;P2;SDS_P1;SDS_P2;PMS_P1;PMS_P2;Temp;Humidity;BMP_temperature;BMP_pressure;BME280_temperature;BME280_humidity;BME280_pressure;Samples;Min_cycle;Max_cycle;Signal;HPM_P1;HPM_P2
2022/07/13 00:01:11;;;;;;;3.17;2.75;;;19.70;95.90;;;;;;5052741;28;20054;-63
2022/07/13 00:03:37;;;;;;;3.13;2.70;;;19.70;95.90;;;;;;5051062;28;20029;-63
2022/07/13 00:06:03;;;;;;;3.10;2.83;;;19.70;95.90;;;;;;5059971;28;20136;-63
2022/07/13 00:08:28;;;;;;;3.70;3.15;;;19.70;95.90;;;;;;5049440;28;20037;-62
2022/07/13 00:10:54;;;;;;;3.75;3.10;;;19.70;95.90;;;;;;5050953;28;20044;-63
2022/07/13 00:13:20;;;;;;;4.82;3.13;;;19.70;95.90;;;;;;5061972;28;20404;-63
2022/07/13 00:15:45;;;;;;;4.30;3.38;;;19.70;95.90;;;;;;5060410;28;20037;-63
2022/07/13 00:18:11;;;;;;;3.67;2.97;;;19.70;95.90;;;;;;5050062;28;20107;-63
2022/07/13 00:20:36;;;;;;;5.50;3.13;;;19.70;95.90;;;;;;5049382;28;20078;-63
2022/07/13 00:23:03;;;;;;;2.85;2.63;;;19.70;96.10;;;;;;5031730;28;20519;-63
2022/07/13 00:25:28;;;;;;;3.15;2.67;;;19.70;96.20;;;;;;5049577;28;20483;-63
2022/07/13 00:27:54;;;;;;;4.57;3.30;;;19.70;96.30;;;;;;5048865;28;20072;-63
2022/07/13 00:30:20;;;;;;;3.50;2.95;;;19.70;96.40;;;;;;5052288;28;20047;-63
2022/07/13 00:32:46;;;;;;;2.78;2.55;;;19.70;96.50;;;;;;5054779;28;20186;-63
2022/07/13 00:35:11;;;;;;;4.53;3.42;;;19.70;96.50;;;;;;5048752;28;20722;-63
2022/07/13 00:37:37;;;;;;;3.97;3.45;;;19.70;96.50;;;;;;5053628;28;20610;-63
2022/07/13 00:40:04;;;;;;;6.15;4.13;;;19.70;96.60;;;;;;5055441;28;20049;-63
2022/07/13 00:42:29;;;;;;;5.07;4.00;;;19.70;96.50;;;;;;5051858;28;20049;-63
2022/07/13 00:44:55;;;;;;;4.07;3.65;;;19.70;96.20;;;;;;5053758;28;20035;-63
2022/07/13 00:47:20;;;;;;;4.32;3.92;;;19.70;96.10;;;;;;5049551;28;20072;-63
2022/07/13 00:49:46;;;;;;;4.80;4.30;;;19.70;96.20;;;;;;5047506;28;20044;-63
2022/07/13 00:52:12;;;;;;;6.97;5.38;;;19.70;96.20;;;;;;5048829;28;20037;-64
2022/07/13 00:54:41;;;;;;;5.65;4.57;;;19.70;96.00;;;;;;5047655;28;20094;-63
2022/07/13 00:57:09;;;;;;;7.82;4.95;;;19.70;95.90;;;;;;5050458;28;20045;-64
2022/07/13 00:59:36;;;;;;;5.13;4.57;;;19.70;95.90;;;;;;5035502;28;20068;-63
2022/07/13 01:02:02;;;;;;;5.13;4.63;;;19.70;96.00;;;;;;5061277;28;20040;-64
2022/07/13 01:04:28;;;;;;;4.63;4.15;;;19.70;96.30;;;;;;5049429;28;20186;-63
2022/07/13 01:06:54;;;;;;;5.10;4.57;;;19.70;96.00;;;;;;5049847;28;20115;-63
2022/07/13 01:09:22;;;;;;;4.82;4.43;;;19.70;95.90;;;;;;5047710;28;20044;-63
2022/07/13 01:11:48;;;;;;;5.13;4.53;;;19.70;95.90;;;;;;5050541;28;20040;-64
2022/07/13 01:14:14;;;;;;;5.40;4.90;;;19.70;95.90;;;;;;5057818;28;20043;-63
2022/07/13 01:16:41;;;;;;;6.63;5.68;;;19.70;96.10;;;;;;5048213;28;20068;-64
2022/07/13 01:19:10;;;;;;;6.47;5.38;;;19.70;95.70;;;;;;5052487;28;20539;-63
2022/07/13 01:21:42;;;;;;;6.40;5.55;;;19.70;95.80;;;;;;5048576;28;20068;-63
2022/07/13 01:24:08;;;;;;;7.55;6.75;;;19.70;95.80;;;;;;5047059;28;20045;-64
2022/07/13 01:26:34;;;;;;;14.45;6.75;;;19.80;95.40;;;;;;5049772;28;20472;-63
2022/07/13 01:28:59;;;;;;;6.72;5.93;;;19.80;95.40;;;;;;5057717;28;20037;-64
2022/07/13 01:31:35;;;;;;;7.65;6.78;;;19.70;95.40;;;;;;5058143;28;20610;-63
2022/07/13 01:34:01;;;;;;;6.78;6.00;;;19.70;95.30;;;;;;5050276;28;20075;-63
2022/07/13 01:36:28;;;;;;;9.63;7.07;;;19.70;95.20;;;;;;5048307;28;20045;-63
2022/07/13 01:38:53;;;;;;;8.52;6.35;;;19.80;94.80;;;;;;5050786;28;20044;-63
2022/07/13 01:41:21;;;;;;;7.28;6.47;;;19.90;94.70;;;;;;5051429;28;20044;-64
2022/07/13 01:43:47;;;;;;;7.30;6.57;;;19.80;94.70;;;;;;5056288;28;20033;-63
2022/07/13 01:46:12;;;;;;;7.90;6.72;;;19.80;94.70;;;;;;5072721;28;20044;-64
2022/07/13 01:48:38;;;;;;;9.13;7.82;;;19.80;94.70;;;;;;5056991;28;20471;-63
2022/07/13 01:51:03;;;;;;;7.78;6.78;;;19.90;94.60;;;;;;5056233;28;20045;-63
2022/07/13 01:53:29;;;;;;;10.77;7.47;;;19.80;94.40;;;;;;5052318;28;20040;-63
2022/07/13 01:55:55;;;;;;;9.57;8.52;;;19.80;94.20;;;;;;5066205;28;20087;-63
2022/07/13 01:58:20;;;;;;;9.35;8.05;;;19.80;94.10;;;;;;5065763;28;20052;-63
2022/07/13 02:00:46;;;;;;;8.32;7.43;;;19.80;93.90;;;;;;5054151;28;20048;-63
2022/07/13 02:03:11;;;;;;;8.77;7.50;;;19.80;93.90;;;;;;5051654;28;20041;-63
2022/07/13 02:05:37;;;;;;;8.10;7.30;;;19.90;93.70;;;;;;5051871;28;20033;-63
2022/07/13 02:08:03;;;;;;;10.50;7.50;;;19.90;93.60;;;;;;5053824;28;20076;-63
2022/07/13 02:10:34;;;;;;;8.55;7.68;;;19.90;93.50;;;;;;5052873;28;20052;-63
2022/07/13 02:13:02;;;;;;;8.00;7.20;;;19.90;93.20;;;;;;5052395;28;20480;-63
2022/07/13 02:15:27;;;;;;;8.27;6.88;;;19.90;92.90;;;;;;5058238;28;20045;-63
2022/07/13 02:17:53;;;;;;;10.07;7.10;;;19.90;93.00;;;;;;5059936;28;20507;-63
2022/07/13 02:20:18;;;;;;;9.43;8.10;;;19.90;93.00;;;;;;5052036;28;20507;-63
2022/07/13 02:22:45;;;;;;;8.00;7.20;;;19.90;92.70;;;;;;5054996;28;20495;-63
2022/07/13 02:25:14;;;;;;;8.93;8.02;;;20.00;92.60;;;;;;5050793;28;20451;-63
2022/07/13 02:27:40;;;;;;;10.43;8.10;;;19.90;92.50;;;;;;5056522;28;20025;-64
2022/07/13 02:30:09;;;;;;;8.90;7.93;;;19.90;92.50;;;;;;5058413;28;20093;-63
2022/07/13 02:32:36;;;;;;;11.73;7.82;;;19.90;92.30;;;;;;5052489;28;20378;-63
2022/07/13 02:35:02;;;;;;;14.55;8.75;;;19.90;92.40;;;;;;5049760;28;20047;-63
2022/07/13 02:37:27;;;;;;;9.48;7.68;;;19.90;92.40;;;;;;5051847;28;20473;-63
2022/07/13 02:39:55;;;;;;;11.48;8.20;;;19.90;92.40;;;;;;5054415;28;20083;-63
2022/07/13 02:42:22;;;;;;;8.32;7.32;;;19.90;92.10;;;;;;5049534;28;20052;-63
2022/07/13 02:44:49;;;;;;;10.20;7.97;;;19.90;92.20;;;;;;5053904;28;20074;-63
2022/07/13 02:47:14;;;;;;;11.95;7.57;;;19.90;92.20;;;;;;5058799;28;20111;-63
2022/07/13 02:49:40;;;;;;;10.35;7.60;;;19.90;92.00;;;;;;5062668;28;20116;-63
2022/07/13 02:52:06;;;;;;;10.65;7.20;;;19.90;92.00;;;;;;5049139;28;20084;-64
2022/07/13 02:54:32;;;;;;;9.40;7.65;;;19.90;91.90;;;;;;5056152;28;20405;-64
2022/07/13 02:56:58;;;;;;;10.65;7.43;;;19.90;91.90;;;;;;5055808;28;20049;-63
2022/07/13 02:59:24;;;;;;;9.95;7.82;;;19.90;91.80;;;;;;5052557;28;20052;-63
2022/07/13 03:01:49;;;;;;;10.00;7.07;;;19.90;91.70;;;;;;5056931;28;20116;-63
2022/07/13 03:04:16;;;;;;;10.60;6.90;;;19.90;91.70;;;;;;5059605;28;20036;-63
2022/07/13 03:06:41;;;;;;;9.13;6.47;;;19.90;91.70;;;;;;5063749;28;20047;-63
2022/07/13 03:09:07;;;;;;;9.10;6.97;;;19.90;91.60;;;;;;5051014;28;20772;-63
2022/07/13 03:11:33;;;;;;;7.50;6.35;;;19.90;91.90;;;;;;5049764;28;20047;-63
2022/07/13 03:13:58;;;;;;;8.20;7.40;;;19.90;91.30;;;;;;5053439;28;20041;-63
2022/07/13 03:16:24;;;;;;;10.13;6.70;;;19.90;91.40;;;;;;5051134;28;20115;-63
2022/07/13 03:18:50;;;;;;;7.82;6.50;;;19.90;91.50;;;;;;5051593;28;20076;-63
2022/07/13 03:21:16;;;;;;;8.68;6.80;;;19.90;91.50;;;;;;5055161;28;20037;-63
2022/07/13 03:23:41;;;;;;;10.35;7.55;;;19.90;91.30;;;;;;5048546;28;20059;-64
2022/07/13 03:26:07;;;;;;;8.65;6.30;;;20.00;91.00;;;;;;5053258;28;20029;-64
2022/07/13 03:28:32;;;;;;;11.30;6.65;;;19.90;90.90;;;;;;5061885;28;20365;-64
2022/07/13 03:30:58;;;;;;;9.02;6.97;;;20.00;90.90;;;;;;5056278;28;20474;-63
2022/07/13 03:33:24;;;;;;;7.25;6.43;;;20.00;90.70;;;;;;5052141;28;20036;-63
2022/07/13 03:35:49;;;;;;;7.70;6.05;;;20.00;90.80;;;;;;5048701;28;20499;-63
2022/07/13 03:38:15;;;;;;;9.32;6.32;;;20.00;90.70;;;;;;5049394;28;20149;-63
2022/07/13 03:40:41;;;;;;;9.23;6.53;;;20.00;90.70;;;;;;5050858;28;20052;-63
2022/07/13 03:43:06;;;;;;;9.52;6.53;;;20.00;90.70;;;;;;5052084;28;20029;-64
2022/07/13 03:45:32;;;;;;;8.80;5.70;;;20.00;90.80;;;;;;5063767;28;20032;-64
2022/07/13 03:47:57;;;;;;;9.55;6.55;;;20.00;90.80;;;;;;5056685;28;20040;-63
2022/07/13 03:50:23;;;;;;;7.13;6.25;;;20.00;90.60;;;;;;5049368;28;20052;-63
2022/07/13 03:52:49;;;;;;;9.48;6.30;;;20.00;90.50;;;;;;5051891;28;20040;-63
2022/07/13 03:55:14;;;;;;;8.00;5.75;;;20.00;90.60;;;;;;5048404;28;20504;-64
2022/07/13 03:57:40;;;;;;;11.77;6.85;;;20.00;90.70;;;;;;5050216;28;20048;-63
2022/07/13 04:00:07;;;;;;;6.57;5.88;;;20.00;90.70;;;;;;5048452;28;20090;-64
2022/07/13 04:02:32;;;;;;;11.00;6.85;;;20.00;90.90;;;;;;5064540;28;20056;-63
2022/07/13 04:04:58;;;;;;;6.82;6.05;;;19.90;90.80;;;;;;5047849;28;20102;-64
2022/07/13 04:07:24;;;;;;;8.10;6.70;;;19.90;90.90;;;;;;5056031;28;20636;-64
2022/07/13 04:09:49;;;;;;;9.98;6.38;;;19.90;90.90;;;;;;5049589;28;20040;-63
2022/07/13 04:12:22;;;;;;;9.70;6.70;;;19.90;91.10;;;;;;5049416;28;20037;-63
2022/07/13 04:14:50;;;;;;;8.15;6.38;;;19.90;91.10;;;;;;5048762;28;20425;-64
2022/07/13 04:17:16;;;;;;;7.45;6.03;;;19.90;91.30;;;;;;5054293;28;20044;-63
2022/07/13 04:19:41;;;;;;;6.93;6.22;;;19.90;91.30;;;;;;5049725;28;20032;-63
2022/07/13 04:22:07;;;;;;;9.45;7.53;;;19.90;91.30;;;;;;5049216;28;20033;-64
2022/07/13 04:24:33;;;;;;;8.27;6.13;;;19.90;91.30;;;;;;5053325;28;20094;-63
2022/07/13 04:26:58;;;;;;;7.63;6.55;;;19.90;91.40;;;;;;5050216;28;20048;-64
2022/07/13 04:29:24;;;;;;;9.50;7.50;;;19.90;91.40;;;;;;5049966;28;20121;-63
2022/07/13 04:31:50;;;;;;;8.52;6.68;;;19.90;91.20;;;;;;5049576;28;20554;-64
2022/07/13 04:34:16;;;;;;;7.80;7.00;;;19.90;91.20;;;;;;5049522;28;20045;-63
2022/07/13 04:36:42;;;;;;;10.10;6.72;;;19.90;91.00;;;;;;5047764;28;20052;-64
2022/07/13 04:39:08;;;;;;;8.68;6.47;;;19.90;90.90;;;;;;5047097;28;20084;-64
2022/07/13 04:41:34;;;;;;;7.72;6.47;;;19.90;90.90;;;;;;5055980;28;20090;-64
2022/07/13 04:43:59;;;;;;;9.32;6.95;;;19.90;90.90;;;;;;5046910;28;20045;-64
2022/07/13 04:46:25;;;;;;;7.82;6.80;;;19.90;90.90;;;;;;5052733;28;20151;-64
2022/07/13 04:48:51;;;;;;;8.02;6.50;;;19.90;90.90;;;;;;5055195;28;20116;-63
2022/07/13 04:51:16;;;;;;;8.57;6.82;;;20.00;91.00;;;;;;5048945;28;20167;-63
2022/07/13 04:53:42;;;;;;;8.10;6.50;;;20.00;90.90;;;;;;5057390;28;20139;-64
2022/07/13 04:56:08;;;;;;;7.75;6.50;;;20.00;90.90;;;;;;5050961;28;20052;-63
2022/07/13 04:58:33;;;;;;;7.70;6.15;;;20.10;90.80;;;;;;5062149;28;20045;-64
2022/07/13 05:01:04;;;;;;;7.85;6.35;;;20.00;90.80;;;;;;5056583;28;20641;-64
2022/07/13 05:03:30;;;;;;;8.30;6.63;;;20.00;90.90;;;;;;5047845;28;20032;-64
2022/07/13 05:05:55;;;;;;;9.07;6.32;;;20.00;90.80;;;;;;5062707;28;20033;-64
2022/07/13 05:08:21;;;;;;;7.60;5.95;;;20.10;90.80;;;;;;5046865;28;20040;-64
2022/07/13 05:10:47;;;;;;;9.23;7.03;;;20.10;90.90;;;;;;5049381;28;20108;-64
2022/07/13 05:13:12;;;;;;;7.72;6.07;;;20.10;90.80;;;;;;5050653;28;20033;-64
2022/07/13 05:15:38;;;;;;;8.02;5.55;;;20.10;90.80;;;;;;5056650;28;20480;-63
2022/07/13 05:18:03;;;;;;;6.45;5.80;;;20.10;90.90;;;;;;5058439;28;20054;-63
2022/07/13 05:20:29;;;;;;;7.53;5.38;;;20.10;90.90;;;;;;5052370;28;20388;-64
2022/07/13 05:22:54;;;;;;;6.47;5.18;;;20.20;90.80;;;;;;5053091;28;20503;-63
2022/07/13 05:25:20;;;;;;;6.35;4.88;;;20.20;90.80;;;;;;5050908;28;20550;-64
2022/07/13 05:27:46;;;;;;;7.25;5.47;;;20.20;90.80;;;;;;5064464;28;20048;-64
2022/07/13 05:30:12;;;;;;;7.25;5.45;;;20.30;90.80;;;;;;5066480;28;20037;-63
2022/07/13 05:32:38;;;;;;;6.32;4.88;;;20.30;90.60;;;;;;5052196;28;20047;-63
2022/07/13 05:35:04;;;;;;;6.35;5.10;;;20.30;90.50;;;;;;5055189;28;20047;-63
2022/07/13 05:37:29;;;;;;;6.18;4.88;;;20.30;90.50;;;;;;5048909;28;20033;-64
2022/07/13 05:39:55;;;;;;;6.35;5.25;;;20.40;90.40;;;;;;5052756;28;20182;-64
2022/07/13 05:42:21;;;;;;;5.20;4.70;;;20.40;90.00;;;;;;5061172;28;20037;-63
2022/07/13 05:44:46;;;;;;;6.43;5.70;;;20.50;89.40;;;;;;5056944;28;20043;-64
2022/07/13 05:47:12;;;;;;;8.10;4.90;;;20.50;89.10;;;;;;5054379;28;20492;-63
2022/07/13 05:49:38;;;;;;;6.28;4.55;;;20.60;88.90;;;;;;5054038;28;20369;-63
2022/07/13 05:52:04;;;;;;;6.55;4.95;;;20.70;88.40;;;;;;5053966;28;20044;-64
2022/07/13 05:54:30;;;;;;;4.85;4.35;;;20.70;88.30;;;;;;5056157;28;20045;-64
2022/07/13 05:56:56;;;;;;;5.10;4.55;;;20.80;88.30;;;;;;5053729;28;20061;-63
2022/07/13 05:59:22;;;;;;;7.15;4.80;;;20.90;88.40;;;;;;5061332;28;20063;-64
2022/07/13 06:01:47;;;;;;;6.18;4.70;;;21.00;88.50;;;;;;5060309;28;20463;-64
2022/07/13 06:04:13;;;;;;;8.25;4.88;;;21.00;87.80;;;;;;5053323;28;20087;-64
2022/07/13 06:06:38;;;;;;;6.03;4.55;;;21.10;87.60;;;;;;5051546;28;20029;-64
2022/07/13 06:09:04;;;;;;;7.30;4.38;;;21.20;87.50;;;;;;5048976;28;20132;-64
2022/07/13 06:11:30;;;;;;;5.38;4.70;;;21.20;88.10;;;;;;5052654;28;20059;-64
2022/07/13 06:13:56;;;;;;;5.43;4.20;;;21.30;87.30;;;;;;5062076;28;20098;-64
2022/07/13 06:16:21;;;;;;;7.05;4.78;;;21.40;87.20;;;;;;5061248;28;20480;-64
2022/07/13 06:18:47;;;;;;;5.28;4.07;;;21.50;87.00;;;;;;5050609;28;20083;-64
2022/07/13 06:21:13;;;;;;;5.28;3.72;;;21.50;86.80;;;;;;5052100;28;20041;-64
2022/07/13 06:23:38;;;;;;;5.35;4.15;;;21.70;86.60;;;;;;5057211;28;20047;-64
2022/07/13 06:26:04;;;;;;;4.72;3.95;;;21.80;86.00;;;;;;5064928;28;20119;-64
2022/07/13 06:28:29;;;;;;;6.25;4.07;;;21.90;85.30;;;;;;5051240;28;20435;-64
2022/07/13 06:30:55;;;;;;;4.40;3.95;;;21.90;84.80;;;;;;5054924;28;20036;-65
2022/07/13 06:33:21;;;;;;;5.82;4.32;;;21.90;84.80;;;;;;5058085;28;20032;-64
2022/07/13 06:35:46;;;;;;;4.38;3.97;;;22.10;84.60;;;;;;5052916;28;20029;-65
2022/07/13 06:38:12;;;;;;;4.78;4.10;;;22.40;84.40;;;;;;5054424;28;22415;-64
2022/07/13 06:40:37;;;;;;;4.32;3.92;;;22.60;84.20;;;;;;5065086;28;20043;-64
2022/07/13 06:43:03;;;;;;;5.00;4.15;;;22.80;83.60;;;;;;5054270;28;20041;-64
2022/07/13 06:45:29;;;;;;;5.20;3.97;;;22.80;82.90;;;;;;5051456;28;20091;-65
2022/07/13 06:47:55;;;;;;;6.75;3.88;;;22.90;82.60;;;;;;5053297;28;20443;-65
2022/07/13 06:50:21;;;;;;;4.22;3.70;;;23.10;82.10;;;;;;5051584;28;20091;-65
2022/07/13 06:52:47;;;;;;;4.38;3.72;;;23.20;81.40;;;;;;5058727;28;20090;-65
2022/07/13 06:55:14;;;;;;;4.47;3.90;;;23.40;81.10;;;;;;5057323;28;20095;-65
2022/07/13 06:57:39;;;;;;;6.20;3.88;;;23.50;80.30;;;;;;5054647;28;20041;-65
2022/07/13 07:00:06;;;;;;;3.75;3.45;;;23.60;79.90;;;;;;5051751;28;20052;-65
2022/07/13 07:02:32;;;;;;;5.80;4.05;;;23.90;79.50;;;;;;5056723;28;20069;-65
2022/07/13 07:04:58;;;;;;;7.80;4.60;;;24.10;78.70;;;;;;5054267;28;20072;-65
2022/07/13 07:07:24;;;;;;;5.13;4.47;;;24.20;77.90;;;;;;5054044;28;20036;-65
2022/07/13 07:09:49;;;;;;;6.50;4.70;;;24.30;77.50;;;;;;5051813;28;20128;-65
2022/07/13 07:12:16;;;;;;;6.18;4.95;;;24.50;77.30;;;;;;5054786;28;20086;-65
2022/07/13 07:14:41;;;;;;;7.07;5.10;;;24.40;76.50;;;;;;5064867;28;20063;-65
2022/07/13 07:17:07;;;;;;;7.47;5.13;;;24.50;76.40;;;;;;5058807;28;20520;-66
2022/07/13 07:19:32;;;;;;;8.20;4.90;;;24.60;76.30;;;;;;5051445;28;20403;-65
2022/07/13 07:21:58;;;;;;;9.30;4.93;;;24.60;76.00;;;;;;5052919;28;20037;-65
2022/07/13 07:24:24;;;;;;;6.95;5.07;;;24.70;76.10;;;;;;5066077;28;20068;-65
2022/07/13 07:26:51;;;;;;;7.03;5.65;;;24.50;76.00;;;;;;5070881;28;20045;-65
2022/07/13 07:29:17;;;;;;;6.55;4.68;;;24.70;75.80;;;;;;5071127;28;20175;-65
2022/07/13 07:31:42;;;;;;;7.40;5.57;;;24.90;75.90;;;;;;5067883;28;20123;-66
2022/07/13 07:34:08;;;;;;;5.03;4.28;;;25.00;75.70;;;;;;5052025;28;20528;-65
2022/07/13 07:36:34;;;;;;;6.60;5.25;;;25.20;75.40;;;;;;5055771;28;20486;-65
2022/07/13 07:38:59;;;;;;;7.55;5.32;;;25.50;75.00;;;;;;5049458;28;20045;-65
2022/07/13 07:41:25;;;;;;;6.88;5.57;;;25.70;74.40;;;;;;5064809;28;20122;-65
2022/07/13 07:43:51;;;;;;;5.60;4.30;;;25.80;73.20;;;;;;5055755;28;20037;-65
2022/07/13 07:46:16;;;;;;;7.50;4.70;;;26.00;72.60;;;;;;5049168;28;20381;-65
2022/07/13 07:48:42;;;;;;;8.20;5.07;;;26.10;71.80;;;;;;5053172;28;20047;-66
2022/07/13 07:51:08;;;;;;;5.97;5.00;;;26.20;71.40;;;;;;5051464;28;20041;-64
2022/07/13 07:53:33;;;;;;;8.20;5.10;;;26.20;70.90;;;;;;5052623;28;20040;-65
2022/07/13 07:55:59;;;;;;;6.28;5.25;;;26.00;70.50;;;;;;5059340;28;20055;-66
2022/07/13 07:58:25;;;;;;;6.75;5.00;;;26.10;70.10;;;;;;5051846;28;20041;-66
2022/07/13 08:00:50;;;;;;;5.78;4.30;;;26.20;70.40;;;;;;5056643;28;20507;-66
2022/07/13 08:03:16;;;;;;;7.65;5.35;;;26.20;70.70;;;;;;5061554;28;20037;-65
2022/07/13 08:05:45;;;;;;;9.98;4.78;;;26.20;70.60;;;;;;5056865;28;20041;-65
2022/07/13 08:08:10;;;;;;;7.47;5.72;;;26.30;70.70;;;;;;5063329;28;20511;-65
2022/07/13 08:10:36;;;;;;;8.57;5.63;;;26.40;70.10;;;;;;5053912;28;20064;-66
2022/07/13 08:13:03;;;;;;;6.82;5.40;;;26.30;69.80;;;;;;5069860;28;20063;-66
2022/07/13 08:15:30;;;;;;;8.57;5.35;;;26.50;69.50;;;;;;5067993;28;20035;-65
2022/07/13 08:17:57;;;;;;;7.57;5.18;;;26.60;69.60;;;;;;5058678;28;20098;-66
2022/07/13 08:20:23;;;;;;;6.20;4.97;;;26.80;69.50;;;;;;5051882;28;20045;-65
2022/07/13 08:22:49;;;;;;;6.00;5.32;;;27.20;69.40;;;;;;5054477;28;20481;-66
2022/07/13 08:25:15;;;;;;;6.65;5.05;;;27.30;68.60;;;;;;5050331;28;20094;-66
2022/07/13 08:27:41;;;;;;;7.32;5.40;;;27.60;68.30;;;;;;5052374;28;20055;-65
2022/07/13 08:30:07;;;;;;;6.53;5.30;;;27.80;67.80;;;;;;5052658;28;20111;-65
2022/07/13 08:32:33;;;;;;;6.07;5.20;;;28.10;67.10;;;;;;5053939;28;20041;-67
2022/07/13 08:40:27;;;;;;;8.07;5.10;;;28.80;64.60;;;;;;5057121;28;20037;-65
2022/07/13 08:42:53;;;;;;;7.50;4.40;;;29.00;63.90;;;;;;5058044;28;20346;-66
2022/07/13 08:45:18;;;;;;;6.95;5.60;;;29.20;63.20;;;;;;5052595;28;20658;-65
2022/07/13 08:47:46;;;;;;;6.93;4.85;;;29.60;62.70;;;;;;5065135;28;20051;-65
2022/07/13 08:50:12;;;;;;;6.55;4.97;;;29.70;62.20;;;;;;5054002;28;20062;-65
2022/07/13 08:52:41;;;;;;;7.10;4.95;;;30.10;61.40;;;;;;5064163;28;20549;-66
2022/07/13 08:55:08;;;;;;;5.57;4.20;;;30.50;59.50;;;;;;5055059;28;20063;-64
2022/07/13 08:57:36;;;;;;;5.90;4.35;;;31.10;59.10;;;;;;5056327;28;20118;-64
2022/07/13 09:00:08;;;;;;;5.00;4.47;;;31.40;58.20;;;;;;5054678;28;20048;-65
2022/07/13 09:02:34;;;;;;;5.93;4.82;;;31.70;57.50;;;;;;5070352;28;20392;-63
2022/07/13 09:05:04;;;;;;;5.40;4.38;;;32.10;56.70;;;;;;5055940;28;20098;-64
2022/07/13 09:07:30;;;;;;;;;;;32.40;55.80;;;;;;5072185;28;20499;-64
2022/07/13 09:09:58;;;;;;;4.03;3.63;;;32.40;53.00;;;;;;5056009;28;19940;-64
2022/07/13 09:12:25;;;;;;;5.10;3.33;;;33.00;55.40;;;;;;5064525;28;20086;-64
2022/07/13 09:14:55;;;;;;;5.60;3.63;;;33.40;53.50;;;;;;5061427;28;20045;-64
2022/07/13 09:17:27;;;;;;;;;;;33.90;51.90;;;;;;5069221;28;20028;-64
2022/07/13 09:19:52;;;;;;;4.63;3.47;;;34.00;50.80;;;;;;5056411;28;20383;-65
2022/07/13 09:22:18;;;;;;;4.15;3.50;;;34.30;51.70;;;;;;5061741;28;20075;-65
2022/07/13 09:24:48;;;;;;;6.18;3.40;;;34.70;50.40;;;;;;5072630;28;20036;-64
2022/07/13 09:27:15;;;;;;;4.10;2.83;;;35.00;47.50;;;;;;5060037;28;20503;-64
2022/07/13 09:29:42;;;;;;;4.18;3.10;;;35.20;48.30;;;;;;5054262;28;20594;-66
2022/07/13 09:32:11;;;;;;;5.97;3.20;;;35.60;47.70;;;;;;5061137;28;20226;-64
2022/07/13 09:34:51;;;;;;;4.05;2.70;;;35.60;47.00;;;;;;5050423;28;20404;-64
2022/07/13 09:37:19;;;;;;;3.90;3.00;;;36.00;46.10;;;;;;5052933;28;20040;-64
2022/07/13 09:40:01;;;;;;;3.55;2.95;;;36.10;46.20;;;;;;5051118;28;20037;-64
2022/07/13 09:42:31;;;;;;;4.20;3.47;;;36.50;45.20;;;;;;5052935;28;20088;-65
2022/07/13 09:47:48;;;;;;;3.00;2.58;;;36.80;43.20;;;;;;5054024;28;20175;-65
2022/07/13 09:50:19;;;;;;;3.90;2.30;;;37.20;42.60;;;;;;5058396;28;20954;-64
2022/07/13 09:52:46;;;;;;;3.17;2.30;;;37.20;42.20;;;;;;5052412;28;20385;-65
2022/07/13 09:55:13;;;;;;;2.78;2.20;;;37.30;41.70;;;;;;5051595;28;20061;-65
2022/07/13 09:57:47;;;;;;;3.30;2.70;;;37.50;42.10;;;;;;5066264;28;20040;-66
2022/07/13 10:00:17;;;;;;;2.50;2.30;;;37.30;40.30;;;;;;5067389;28;20059;-64
2022/07/13 10:02:43;;;;;;;3.75;2.38;;;37.40;40.20;;;;;;5063854;28;20033;-64
2022/07/13 10:05:10;;;;;;;5.20;2.10;;;37.40;39.30;;;;;;5054605;28;20040;-65
2022/07/13 10:07:37;;;;;;;2.28;2.08;;;37.50;39.10;;;;;;5069812;28;20388;-65
2022/07/13 10:10:06;;;;;;;3.92;2.40;;;37.80;38.80;;;;;;5066964;28;20029;-65
2022/07/13 10:12:36;;;;;;;3.88;1.90;;;38.30;38.20;;;;;;5052452;28;20056;-65
2022/07/13 10:15:03;;;;;;;4.40;2.35;;;38.40;37.70;;;;;;5061856;28;20048;-65
2022/07/13 10:17:29;;;;;;;3.22;2.15;;;38.90;36.90;;;;;;5070339;28;20052;-65
2022/07/13 10:20:00;;;;;;;2.42;1.65;;;39.20;36.50;;;;;;5058710;28;20037;-65
2022/07/13 10:22:30;;;;;;;1.90;1.73;;;39.20;35.70;;;;;;5072197;28;20048;-65
2022/07/13 10:24:57;;;;;;;;;;;39.30;35.00;;;;;;5071737;28;20491;-65
2022/07/13 10:27:33;;;;;;;5.15;1.60;;;39.20;35.60;;;;;;5056117;28;19917;-64
2022/07/13 10:30:08;;;;;;;3.33;1.58;;;39.80;35.40;;;;;;5063285;28;20036;-65
2022/07/13 10:32:35;;;;;;;2.75;1.60;;;40.20;34.40;;;;;;5070442;28;20534;-64
2022/07/13 10:35:09;;;;;;;2.53;1.63;;;40.20;34.10;;;;;;5060157;28;20112;-66
2022/07/13 10:37:58;;;;;;;3.10;1.65;;;40.30;33.30;;;;;;5053981;28;20052;-65
2022/07/13 10:40:30;;;;;;;4.15;1.90;;;40.70;33.70;;;;;;5058968;28;20126;-66
2022/07/13 10:43:05;;;;;;;3.05;1.60;;;40.80;33.00;;;;;;5057893;28;20372;-64
2022/07/13 10:45:43;;;;;;;1.52;1.40;;;40.50;33.00;;;;;;5065977;28;20125;-64
2022/07/13 10:48:21;;;;;;;4.00;1.60;;;40.00;32.60;;;;;;5066533;28;20076;-64
2022/07/13 10:50:49;;;;;;;2.03;1.75;;;39.10;33.40;;;;;;5051478;28;20040;-66
2022/07/13 10:53:19;;;;;;;2.45;1.63;;;38.20;34.70;;;;;;5066070;28;20043;-61
2022/07/13 10:55:47;;;;;;;3.50;2.10;;;37.20;35.90;;;;;;5064074;28;20063;-65
2022/07/13 10:58:30;;;;;;;2.08;1.80;;;36.20;36.30;;;;;;5062233;28;21083;-66
2022/07/13 11:01:01;;;;;;;3.55;1.58;;;36.00;37.30;;;;;;5057006;28;20067;-65
2022/07/13 11:03:44;;;;;;;1.75;1.58;;;36.20;38.00;;;;;;5057060;28;20051;-64
2022/07/13 11:06:17;;;;;;;2.08;1.60;;;36.00;37.30;;;;;;5062460;28;20077;-66
2022/07/13 11:08:43;;;;;;;3.65;2.20;;;35.70;37.10;;;;;;5050174;28;20044;-65
2022/07/13 11:11:09;;;;;;;1.73;1.63;;;35.30;37.50;;;;;;5056010;28;20033;-66
2022/07/13 11:13:35;;;;;;;2.28;1.80;;;35.00;38.50;;;;;;5062720;28;20070;-65
2022/07/13 11:16:02;;;;;;;2.88;1.70;;;34.50;39.60;;;;;;5056030;28;20036;-65
2022/07/13 11:18:34;;;;;;;2.28;1.77;;;34.20;40.60;;;;;;5059367;28;20048;-64
2022/07/13 11:21:22;;;;;;;2.20;1.85;;;33.70;41.00;;;;;;5059685;28;20385;-65
2022/07/13 11:27:02;;;;;;;3.45;2.03;;;33.00;40.90;;;;;;5055397;28;20044;-65
2022/07/13 11:29:57;;;;;;;3.88;2.00;;;32.80;42.00;;;;;;5054660;28;20133;-65
2022/07/13 11:32:23;;;;;;;2.45;1.90;;;32.70;43.20;;;;;;5055165;28;20427;-64
2022/07/13 11:34:49;;;;;;;2.97;2.00;;;32.50;43.50;;;;;;5054509;28;21866;-65
2022/07/13 11:37:22;;;;;;;2.42;1.90;;;32.10;43.80;;;;;;5067376;28;20045;-66
2022/07/13 11:39:48;;;;;;;3.13;1.73;;;32.00;43.90;;;;;;5066767;28;20036;-64
2022/07/13 11:42:13;;;;;;;2.53;1.90;;;31.90;44.00;;;;;;5055229;28;20040;-69
2022/07/13 11:44:40;;;;;;;2.53;2.05;;;32.00;44.10;;;;;;5064437;28;20094;-65
2022/07/13 11:47:08;;;;;;;2.20;2.00;;;32.20;44.20;;;;;;5066399;28;20436;-65
2022/07/13 11:49:46;;;;;;;3.08;2.00;;;32.40;44.00;;;;;;5051079;28;20388;-65
2022/07/13 11:52:28;;;;;;;4.78;2.55;;;32.20;44.20;;;;;;5051711;28;20131;-65
2022/07/13 11:54:59;;;;;;;2.28;1.73;;;32.10;44.10;;;;;;5050985;28;20037;-65
2022/07/13 11:57:25;;;;;;;4.32;2.22;;;32.30;43.90;;;;;;5054308;28;20056;-65
2022/07/13 11:59:51;;;;;;;2.42;1.90;;;32.20;44.00;;;;;;5067800;28;20066;-65
2022/07/13 12:02:16;;;;;;;1.80;1.70;;;32.20;44.20;;;;;;5072877;28;20036;-67
2022/07/13 12:04:48;;;;;;;4.18;1.70;;;32.20;44.50;;;;;;5055306;28;20041;-66
2022/07/13 12:07:19;;;;;;;2.25;2.05;;;31.90;44.30;;;;;;5070613;28;20056;-66
2022/07/13 12:09:50;;;;;;;2.00;1.55;;;31.50;45.00;;;;;;5066112;28;20503;-65
2022/07/13 12:12:17;;;;;;;4.38;1.90;;;31.30;45.50;;;;;;5065581;28;20107;-67
2022/07/13 12:14:44;;;;;;;3.20;1.80;;;31.30;46.10;;;;;;5065692;28;20036;-66
2022/07/13 12:17:09;;;;;;;3.95;1.58;;;31.30;46.10;;;;;;5052252;28;20037;-66
2022/07/13 12:19:36;;;;;;;2.58;1.48;;;31.70;46.00;;;;;;5050508;28;20041;-65
2022/07/13 12:22:01;;;;;;;1.35;1.25;;;32.00;44.90;;;;;;5055040;28;20033;-66
2022/07/13 12:24:29;;;;;;;2.30;2.00;;;32.10;44.30;;;;;;5065130;28;20464;-67
2022/07/13 12:26:55;;;;;;;2.45;1.55;;;32.70;43.80;;;;;;5059672;28;20041;-67
2022/07/13 12:29:32;;;;;;;3.28;1.70;;;33.20;43.00;;;;;;5057289;28;20506;-66
2022/07/13 12:31:58;;;;;;;6.32;1.52;;;33.50;42.40;;;;;;5054498;28;20683;-69
2022/07/13 12:34:24;;;;;;;2.88;1.80;;;34.90;41.30;;;;;;5049756;28;20044;-67
2022/07/13 12:36:50;;;;;;;2.65;1.73;;;36.30;39.00;;;;;;5055045;28;20066;-67
2022/07/13 12:39:36;;;;;;;2.65;1.63;;;36.40;37.50;;;;;;5069063;28;20476;-66
2022/07/13 12:42:02;;;;;;;2.25;1.70;;;37.30;36.80;;;;;;5072718;28;20373;-67
2022/07/13 12:44:32;;;;;;;4.93;2.60;;;37.50;35.80;;;;;;5055614;28;20045;-66
2022/07/13 12:47:00;;;;;;;2.78;2.30;;;36.70;35.90;;;;;;5052513;28;20044;-67
2022/07/13 12:49:39;;;;;;;3.13;2.50;;;37.10;36.60;;;;;;5053177;28;20116;-66
2022/07/13 12:52:09;;;;;;;4.10;2.63;;;38.00;36.60;;;;;;5049558;28;20091;-67
2022/07/13 12:54:51;;;;;;;3.22;2.38;;;38.90;35.70;;;;;;5059866;28;20043;-65
2022/07/13 12:57:24;;;;;;;3.22;2.35;;;39.20;35.40;;;;;;5051324;28;20044;-66
2022/07/13 13:00:21;;;;;;;3.40;1.70;;;39.90;33.90;;;;;;5050369;28;20122;-66